createdAt,value
2018-11-02T00:05:01.386Z,7.8
2018-11-02T00:10:03.895Z,6.7
2018-11-02T00:15:06.305Z,6.3
2018-11-02T00:20:08.836Z,6.8
2018-11-02T00:25:11.275Z,6.6
2018-11-02T00:30:13.700Z,9.1
2018-11-02T00:35:16.135Z,12
2018-11-02T00:40:18.591Z,22.9
2018-11-02T00:45:21.051Z,33.3
2018-11-02T00:50:23.540Z,45.3
2018-11-02T00:55:25.967Z,56.5
2018-11-02T01:00:28.456Z,78.6
2018-11-02T01:05:30.898Z,91.6
2018-11-02T01:10:33.344Z,99.9
2018-11-02T01:15:35.788Z,99.9
2018-11-02T01:20:38.245Z,99.9
2018-11-02T01:25:40.714Z,99.9
2018-11-02T01:30:43.170Z,99.9
2018-11-02T01:35:45.631Z,99.9
2018-11-02T01:40:48.075Z,99.9
2018-11-02T01:45:50.536Z,99.9
2018-11-02T01:50:52.992Z,99.9
2018-11-02T01:55:55.464Z,99.9
2018-11-02T02:00:57.900Z,99.9
2018-11-02T02:06:00.385Z,99.9
2018-11-02T02:11:02.840Z,99.9
2018-11-02T02:16:05.280Z,99.9
2018-11-02T02:21:07.751Z,99.9
2018-11-02T02:26:10.208Z,99.9
2018-11-02T02:31:12.662Z,99.9
2018-11-02T02:36:15.132Z,99.1
2018-11-02T02:41:17.590Z,95.3
2018-11-02T02:46:20.060Z,93.5
2018-11-02T02:51:22.574Z,92.8
2018-11-02T02:56:24.963Z,92.4
2018-11-02T03:01:27.430Z,92.6
2018-11-02T03:06:29.853Z,93.1
2018-11-02T03:11:32.349Z,92.9
2018-11-02T03:16:34.785Z,94.2
2018-11-02T03:21:37.238Z,95.2
2018-11-02T03:26:39.685Z,95.3
2018-11-02T03:31:42.260Z,99.1
2018-11-02T03:36:44.607Z,99.9
2018-11-02T03:41:47.079Z,99.9
2018-11-02T03:46:49.518Z,99.9
2018-11-02T03:51:51.977Z,99.9
2018-11-02T03:56:54.479Z,99.9
2018-11-02T04:01:56.870Z,99.9
2018-11-02T04:06:59.346Z,99.9
2018-11-02T04:12:01.852Z,99.9
2018-11-02T04:17:04.289Z,99.9
2018-11-02T04:22:06.717Z,99.9
2018-11-02T04:27:09.354Z,99.9
2018-11-02T04:32:11.673Z,99.9
2018-11-02T04:37:14.116Z,99.9
2018-11-02T04:42:16.619Z,99.9
2018-11-02T04:47:19.018Z,99.9
2018-11-02T04:52:21.493Z,99.9
2018-11-02T04:57:23.936Z,99.9
2018-11-02T05:02:26.481Z,99.9
2018-11-02T05:07:29.049Z,99.9
2018-11-02T05:12:31.347Z,99.9
2018-11-02T05:17:33.787Z,99.9
2018-11-02T05:22:36.393Z,99.9
2018-11-02T05:27:38.743Z,99.9
2018-11-02T05:32:41.276Z,99.9
2018-11-02T05:37:43.618Z,99.9
2018-11-02T05:42:46.264Z,99.9
2018-11-02T05:47:48.532Z,99.9
2018-11-02T05:52:51.046Z,99.9
2018-11-02T05:57:53.458Z,99.9
2018-11-02T06:02:55.888Z,99.9
2018-11-02T06:07:58.455Z,99.9
2018-11-02T06:13:00.847Z,99.9
2018-11-02T06:18:03.287Z,99.9
2018-11-02T06:23:05.719Z,99.9
2018-11-02T06:28:08.204Z,99.9
2018-11-02T06:33:10.663Z,99.9
2018-11-02T06:38:13.098Z,99.9
2018-11-02T06:43:15.584Z,99.9
2018-11-02T06:48:18.009Z,99.9
2018-11-02T06:53:20.469Z,99.9
2018-11-02T06:58:22.933Z,99.9
2018-11-02T07:03:25.415Z,99.9
2018-11-02T07:08:27.866Z,99.9
2018-11-02T07:13:30.358Z,99.9
2018-11-02T07:18:32.773Z,99.9
2018-11-02T07:23:35.224Z,99.9
2018-11-02T07:28:37.685Z,99.9
2018-11-02T07:33:40.170Z,99.9
2018-11-02T07:38:42.607Z,96.3
2018-11-02T07:43:45.142Z,72.5
2018-11-02T07:48:47.541Z,61
2018-11-02T07:53:49.982Z,51.1
2018-11-02T07:58:52.435Z,46.8
2018-11-02T08:03:54.882Z,49
2018-11-02T08:08:57.359Z,44.8
2018-11-02T08:13:59.825Z,43.2
2018-11-02T08:19:02.281Z,48.3
2018-11-02T08:24:04.726Z,39.9
2018-11-02T08:29:07.171Z,52.2
2018-11-02T08:34:09.678Z,60.3
2018-11-02T08:39:12.132Z,49.7
2018-11-02T08:44:14.561Z,46.3
2018-11-02T08:49:17.012Z,39.7
2018-11-02T08:54:19.468Z,40
2018-11-02T08:59:22.047Z,25.2
2018-11-02T09:04:24.445Z,1
2018-11-02T09:09:26.836Z,1
2018-11-02T09:14:29.280Z,1
2018-11-02T09:19:31.945Z,1
2018-11-02T09:24:34.194Z,1
2018-11-02T09:29:36.670Z,1
2018-11-02T09:34:39.125Z,1
2018-11-02T09:39:41.625Z,1
2018-11-02T09:44:44.176Z,1
2018-11-02T09:49:46.511Z,1
2018-11-02T09:54:48.936Z,1
2018-11-02T09:59:51.410Z,1
2018-11-02T10:04:53.870Z,1
2018-11-02T10:09:56.331Z,1
2018-11-02T10:14:58.775Z,1
2018-11-02T10:20:01.465Z,1
2018-11-02T10:25:03.729Z,1
2018-11-02T10:30:06.152Z,1
2018-11-02T10:35:08.744Z,1
2018-11-02T10:40:11.103Z,1
2018-11-02T10:45:13.669Z,1
2018-11-02T10:50:15.976Z,1
2018-11-02T10:55:18.435Z,1
2018-11-02T11:00:20.888Z,1
2018-11-02T11:05:23.452Z,1
2018-11-02T11:10:25.827Z,1
2018-11-02T11:15:28.265Z,1
2018-11-02T11:20:30.747Z,1
2018-11-02T11:25:33.184Z,1
2018-11-02T11:30:35.650Z,1
2018-11-02T11:35:38.092Z,1
2018-11-02T11:40:40.552Z,1
2018-11-02T11:45:43.024Z,1
2018-11-02T11:50:45.550Z,1
2018-11-02T11:55:47.926Z,1
2018-11-02T12:00:50.525Z,1
2018-11-02T12:05:52.841Z,1
2018-11-02T12:10:55.311Z,1
2018-11-02T12:15:57.876Z,1
2018-11-02T12:21:00.229Z,1
2018-11-02T12:26:02.690Z,1
2018-11-02T12:36:07.685Z,1
2018-11-02T12:41:10.054Z,1
2018-11-02T12:46:12.540Z,1
2018-11-02T12:51:14.965Z,1
2018-11-02T12:56:17.484Z,1
2018-11-02T13:01:19.879Z,1
2018-11-02T13:06:22.353Z,1
2018-11-02T13:11:24.815Z,1
2018-11-02T13:16:27.243Z,1
2018-11-02T13:21:29.777Z,1
2018-11-02T13:26:32.179Z,1
2018-11-02T13:31:34.668Z,1
2018-11-02T13:36:37.233Z,1
2018-11-02T13:41:39.575Z,1
2018-11-02T13:46:41.995Z,1
2018-11-02T13:51:44.448Z,1
2018-11-02T13:56:46.918Z,1
2018-11-02T14:01:49.436Z,1
2018-11-02T14:06:51.854Z,1
2018-11-02T14:11:54.281Z,1
2018-11-02T14:16:56.763Z,1
2018-11-02T14:21:59.194Z,1
2018-11-02T14:27:01.644Z,1
2018-11-02T14:32:04.108Z,1
2018-11-02T14:37:06.585Z,1
2018-11-02T14:42:09.014Z,1
2018-11-02T14:47:11.479Z,1
2018-11-02T14:52:13.974Z,1
2018-11-02T14:57:16.392Z,9.3
2018-11-02T15:02:18.857Z,8.5
2018-11-02T15:07:21.314Z,29.1
2018-11-02T15:12:23.766Z,46.9
2018-11-02T15:17:26.240Z,46.2
2018-11-02T15:22:28.697Z,55.6
2018-11-02T15:27:31.139Z,67.5
2018-11-02T15:32:33.608Z,68.9
2018-11-02T15:37:36.061Z,71.1
2018-11-02T15:42:38.510Z,78.2
2018-11-02T15:47:40.968Z,77.5
2018-11-02T15:52:43.439Z,73.6
2018-11-02T15:57:45.888Z,74.5
2018-11-02T16:02:48.345Z,84
2018-11-02T16:07:50.801Z,94.2
2018-11-02T16:12:53.375Z,97.6
2018-11-02T16:17:55.731Z,99.9
2018-11-02T16:22:58.169Z,99.9
2018-11-02T16:28:00.663Z,99.9
2018-11-02T16:33:03.090Z,99.9
2018-11-02T16:38:05.569Z,99.9
2018-11-02T16:43:08.038Z,99.9
2018-11-02T16:48:10.482Z,99.9
2018-11-02T16:53:12.927Z,99.9
2018-11-02T16:58:15.383Z,99.9
2018-11-02T17:03:17.866Z,99.9
2018-11-02T17:08:20.298Z,99.9
2018-11-02T17:13:22.764Z,99.9
2018-11-02T17:18:25.415Z,99.9
2018-11-02T17:23:27.664Z,99.9
2018-11-02T17:28:30.123Z,99.9
2018-11-02T17:33:32.659Z,99.9
2018-11-02T17:38:35.038Z,99.9
2018-11-02T17:43:37.547Z,99.9
2018-11-02T17:48:39.957Z,99.9
2018-11-02T17:53:42.420Z,99.9
2018-11-02T17:58:44.868Z,99.9
2018-11-02T18:03:47.338Z,99.9
2018-11-02T18:08:49.839Z,99.9
2018-11-02T18:13:52.241Z,99.9
2018-11-02T18:18:54.834Z,99.9
2018-11-02T18:23:57.150Z,99.9
2018-11-02T18:28:59.639Z,99.9
2018-11-02T18:34:02.083Z,99.9
2018-11-02T18:39:04.527Z,99.9
2018-11-02T18:44:06.998Z,99.9
2018-11-02T18:49:09.437Z,99.9
2018-11-02T18:54:11.889Z,99.9
2018-11-02T18:59:14.354Z,99.9
2018-11-02T19:04:16.808Z,99.9
2018-11-02T19:09:19.293Z,99.9
2018-11-02T19:14:21.729Z,99.9
2018-11-02T19:19:24.190Z,99.9
2018-11-02T19:24:26.667Z,99.9
2018-11-02T19:29:29.107Z,99.9
2018-11-02T19:34:31.766Z,99.9
2018-11-02T19:39:34.018Z,99.9
2018-11-02T19:44:36.677Z,99.9
2018-11-02T19:49:38.936Z,99.9
2018-11-02T19:54:41.428Z,99.9
2018-11-02T19:59:43.860Z,99.9
2018-11-02T20:04:46.316Z,99.9
2018-11-02T20:09:48.753Z,99.9
2018-11-02T20:14:51.227Z,99.9
2018-11-02T20:19:53.710Z,99.9
2018-11-02T20:24:56.130Z,99.9
2018-11-02T20:29:58.646Z,99.9
2018-11-02T20:35:01.102Z,99.9
2018-11-02T20:40:03.543Z,99.9
2018-11-02T20:45:05.993Z,99.9
2018-11-02T20:50:08.467Z,99.9
2018-11-02T20:55:10.880Z,99.9
2018-11-02T21:00:13.355Z,99.9
2018-11-02T21:05:15.852Z,99.9
2018-11-02T21:10:18.253Z,99.9
2018-11-02T21:15:20.707Z,99.9
2018-11-02T21:20:23.201Z,99.9
2018-11-02T21:25:25.667Z,99.9
2018-11-02T21:30:28.074Z,99.9
2018-11-02T21:35:30.539Z,99.9
2018-11-02T21:40:33.002Z,99.9
2018-11-02T21:45:35.461Z,99.9
2018-11-02T21:50:37.956Z,99.9
2018-11-02T21:55:40.360Z,99.9
2018-11-02T22:00:42.829Z,99.9
2018-11-02T22:05:45.358Z,99.9
2018-11-02T22:10:47.859Z,99.9
2018-11-02T22:15:50.210Z,99.9
2018-11-02T22:20:52.673Z,99.9
2018-11-02T22:25:55.133Z,99.9
2018-11-02T22:30:57.638Z,99.9
2018-11-02T22:36:00.304Z,99.9
2018-11-02T22:41:02.509Z,99.9
2018-11-02T22:46:04.959Z,99.9
2018-11-02T22:51:07.424Z,99.9
2018-11-02T22:56:09.938Z,99.9
2018-11-02T23:01:12.391Z,99.9
2018-11-02T23:06:14.936Z,99.9
2018-11-02T23:11:17.251Z,99.9
2018-11-02T23:16:19.712Z,99.9
2018-11-02T23:21:22.206Z,99.9
2018-11-02T23:26:24.633Z,99.9
2018-11-02T23:31:27.127Z,99.9
2018-11-02T23:36:29.552Z,99.9
2018-11-02T23:41:32.011Z,99.9
2018-11-02T23:46:34.469Z,99.9
2018-11-02T23:51:36.930Z,99.9
2018-11-02T23:56:39.407Z,99.9
